Kennydale, Washington
Current Conditions -  °F | °C
As of 8:53 AM on Thursday 23 Oct 2014 (Local Time) from KRNT Reporting Station
Light Rain Light Rain  
Wind Chill: 11°   Ceiling: 6000
Heat Index: 11°   Visibility: 5mi
Dew Point:   Wind: 3mph
Humidity: 92%   Direction: 150°SSE
Pressure: 29.76"   Gusts: NA
Location:  47.5152°N, 122.184°W
Report Text: KRNT 231553Z 15003KT 5SM -RA BR OVC060 11/09 A2976 RMK AO2 SLP082 P0003 T01060094
Loading
Personal Weather Stations






























Interactive Weather Map
Tropical Storm Tracking
New forecast layout! Learn more

10-Day Weather Forecast

Advertisements
Track Severe Weather on mobile